sensor_id;sensor_type;location;lat;lon;timestamp;temperature;humidity
75457;SHT31;64036;48.266;14.192;2022-12-29T00:02:23;1.07;81.96
75457;SHT31;64036;48.266;14.192;2022-12-29T00:04:49;1.04;81.81
75457;SHT31;64036;48.266;14.192;2022-12-29T00:07:16;1.00;81.71
75457;SHT31;64036;48.266;14.192;2022-12-29T00:09:42;0.93;81.71
75457;SHT31;64036;48.266;14.192;2022-12-29T00:12:08;0.87;81.76
75457;SHT31;64036;48.266;14.192;2022-12-29T00:14:33;0.84;81.91
75457;SHT31;64036;48.266;14.192;2022-12-29T00:17:18;0.82;82.02
75457;SHT31;64036;48.266;14.192;2022-12-29T00:19:43;0.83;82.16
75457;SHT31;64036;48.266;14.192;2022-12-29T00:22:28;0.87;82.06
75457;SHT31;64036;48.266;14.192;2022-12-29T00:25:12;0.90;82.07
75457;SHT31;64036;48.266;14.192;2022-12-29T00:27:57;0.92;82.00
75457;SHT31;64036;48.266;14.192;2022-12-29T00:30:42;0.94;82.00
75457;SHT31;64036;48.266;14.192;2022-12-29T00:33:31;0.96;82.02
75457;SHT31;64036;48.266;14.192;2022-12-29T00:36:27;1.01;81.96
75457;SHT31;64036;48.266;14.192;2022-12-29T00:39:08;1.01;81.98
75457;SHT31;64036;48.266;14.192;2022-12-29T00:42:03;0.98;81.86
75457;SHT31;64036;48.266;14.192;2022-12-29T00:45:03;0.96;81.86
75457;SHT31;64036;48.266;14.192;2022-12-29T00:47:29;0.95;81.76
75457;SHT31;64036;48.266;14.192;2022-12-29T00:49:55;0.93;81.73
75457;SHT31;64036;48.266;14.192;2022-12-29T00:52:20;0.90;81.78
75457;SHT31;64036;48.266;14.192;2022-12-29T00:54:46;0.91;81.75
75457;SHT31;64036;48.266;14.192;2022-12-29T00:57:12;0.89;81.79
75457;SHT31;64036;48.266;14.192;2022-12-29T00:59:38;0.90;81.80
75457;SHT31;64036;48.266;14.192;2022-12-29T01:02:05;0.90;81.74
75457;SHT31;64036;48.266;14.192;2022-12-29T01:04:32;0.89;81.76
75457;SHT31;64036;48.266;14.192;2022-12-29T01:06:58;0.90;81.85
75457;SHT31;64036;48.266;14.192;2022-12-29T01:09:24;0.90;81.81
75457;SHT31;64036;48.266;14.192;2022-12-29T01:12:09;0.93;81.93
75457;SHT31;64036;48.266;14.192;2022-12-29T01:14:35;0.93;82.04
75457;SHT31;64036;48.266;14.192;2022-12-29T01:17:02;0.92;82.06
75457;SHT31;64036;48.266;14.192;2022-12-29T01:19:28;0.89;82.09
75457;SHT31;64036;48.266;14.192;2022-12-29T01:21:54;0.87;82.11
75457;SHT31;64036;48.266;14.192;2022-12-29T01:24:20;0.84;82.03
75457;SHT31;64036;48.266;14.192;2022-12-29T01:26:46;0.79;82.10
75457;SHT31;64036;48.266;14.192;2022-12-29T01:29:13;0.79;82.33
75457;SHT31;64036;48.266;14.192;2022-12-29T01:31:39;0.80;82.29
75457;SHT31;64036;48.266;14.192;2022-12-29T01:34:05;0.81;82.20
75457;SHT31;64036;48.266;14.192;2022-12-29T01:36:31;0.82;82.20
75457;SHT31;64036;48.266;14.192;2022-12-29T01:38:57;0.81;82.19
75457;SHT31;64036;48.266;14.192;2022-12-29T01:41:23;0.77;82.45
75457;SHT31;64036;48.266;14.192;2022-12-29T01:43:56;0.78;82.57
75457;SHT31;64036;48.266;14.192;2022-12-29T01:49:13;0.87;82.74
75457;SHT31;64036;48.266;14.192;2022-12-29T01:54:29;0.92;82.81
75457;SHT31;64036;48.266;14.192;2022-12-29T01:57:03;0.97;82.85
75457;SHT31;64036;48.266;14.192;2022-12-29T01:59:36;1.01;82.89
75457;SHT31;64036;48.266;14.192;2022-12-29T02:02:06;1.03;82.88
75457;SHT31;64036;48.266;14.192;2022-12-29T02:04:33;1.03;82.79
75457;SHT31;64036;48.266;14.192;2022-12-29T02:07:04;0.99;82.72
75457;SHT31;64036;48.266;14.192;2022-12-29T02:09:36;1.01;82.80
75457;SHT31;64036;48.266;14.192;2022-12-29T02:12:02;1.01;82.81
75457;SHT31;64036;48.266;14.192;2022-12-29T02:14:28;1.01;82.80
75457;SHT31;64036;48.266;14.192;2022-12-29T02:36:55;1.04;82.59
75457;SHT31;64036;48.266;14.192;2022-12-29T02:39:57;1.03;82.60
75457;SHT31;64036;48.266;14.192;2022-12-29T02:42:49;0.98;82.55
75457;SHT31;64036;48.266;14.192;2022-12-29T02:45:36;0.94;82.56
75457;SHT31;64036;48.266;14.192;2022-12-29T02:53:50;0.95;82.79
75457;SHT31;64036;48.266;14.192;2022-12-29T02:56:39;0.93;82.64
75457;SHT31;64036;48.266;14.192;2022-12-29T02:59:05;0.91;82.76
75457;SHT31;64036;48.266;14.192;2022-12-29T03:07:18;0.91;82.88
75457;SHT31;64036;48.266;14.192;2022-12-29T03:10:41;0.91;82.89
75457;SHT31;64036;48.266;14.192;2022-12-29T03:19:32;0.99;83.12
75457;SHT31;64036;48.266;14.192;2022-12-29T03:22:04;0.99;83.13
75457;SHT31;64036;48.266;14.192;2022-12-29T03:24:52;1.00;83.21
75457;SHT31;64036;48.266;14.192;2022-12-29T03:27:35;1.02;83.10
75457;SHT31;64036;48.266;14.192;2022-12-29T03:30:07;0.99;83.05
75457;SHT31;64036;48.266;14.192;2022-12-29T03:32:38;1.00;83.07
75457;SHT31;64036;48.266;14.192;2022-12-29T03:35:15;1.00;83.08
75457;SHT31;64036;48.266;14.192;2022-12-29T03:37:45;0.99;83.17
75457;SHT31;64036;48.266;14.192;2022-12-29T03:40:18;1.02;83.32
75457;SHT31;64036;48.266;14.192;2022-12-29T03:42:48;1.02;83.25
75457;SHT31;64036;48.266;14.192;2022-12-29T03:45:13;1.03;83.14
75457;SHT31;64036;48.266;14.192;2022-12-29T03:47:39;1.04;83.16
75457;SHT31;64036;48.266;14.192;2022-12-29T03:50:05;1.02;83.04
75457;SHT31;64036;48.266;14.192;2022-12-29T03:52:33;0.99;82.85
75457;SHT31;64036;48.266;14.192;2022-12-29T03:54:59;0.95;82.88
75457;SHT31;64036;48.266;14.192;2022-12-29T03:57:25;0.94;82.94
75457;SHT31;64036;48.266;14.192;2022-12-29T03:59:50;0.94;82.91
75457;SHT31;64036;48.266;14.192;2022-12-29T04:02:16;0.92;82.80
75457;SHT31;64036;48.266;14.192;2022-12-29T04:04:41;0.88;82.74
75457;SHT31;64036;48.266;14.192;2022-12-29T04:07:07;0.87;82.73
75457;SHT31;64036;48.266;14.192;2022-12-29T04:09:33;0.86;82.74
75457;SHT31;64036;48.266;14.192;2022-12-29T04:11:58;0.83;82.72
75457;SHT31;64036;48.266;14.192;2022-12-29T04:14:24;0.81;82.71
75457;SHT31;64036;48.266;14.192;2022-12-29T04:16:50;0.80;82.80
75457;SHT31;64036;48.266;14.192;2022-12-29T04:19:15;0.79;82.73
75457;SHT31;64036;48.266;14.192;2022-12-29T04:21:41;0.76;82.81
75457;SHT31;64036;48.266;14.192;2022-12-29T04:24:07;0.74;82.74
75457;SHT31;64036;48.266;14.192;2022-12-29T04:26:33;0.71;82.67
75457;SHT31;64036;48.266;14.192;2022-12-29T04:28:58;0.65;82.67
75457;SHT31;64036;48.266;14.192;2022-12-29T04:31:24;0.59;82.70
75457;SHT31;64036;48.266;14.192;2022-12-29T04:33:49;0.57;82.72
75457;SHT31;64036;48.266;14.192;2022-12-29T04:36:15;0.57;82.66
75457;SHT31;64036;48.266;14.192;2022-12-29T04:38:41;0.58;82.77
75457;SHT31;64036;48.266;14.192;2022-12-29T04:41:06;0.55;82.63
75457;SHT31;64036;48.266;14.192;2022-12-29T04:43:32;0.54;82.75
75457;SHT31;64036;48.266;14.192;2022-12-29T04:45:58;0.54;82.67
75457;SHT31;64036;48.266;14.192;2022-12-29T04:48:23;0.54;82.66
75457;SHT31;64036;48.266;14.192;2022-12-29T04:50:49;0.53;82.65
75457;SHT31;64036;48.266;14.192;2022-12-29T04:53:15;0.48;82.58
75457;SHT31;64036;48.266;14.192;2022-12-29T04:55:42;0.44;82.59
75457;SHT31;64036;48.266;14.192;2022-12-29T04:58:08;0.43;82.67
75457;SHT31;64036;48.266;14.192;2022-12-29T05:00:34;0.41;82.70
75457;SHT31;64036;48.266;14.192;2022-12-29T05:03:00;0.39;82.74
75457;SHT31;64036;48.266;14.192;2022-12-29T05:05:25;0.39;82.81
75457;SHT31;64036;48.266;14.192;2022-12-29T05:07:51;0.41;82.83
75457;SHT31;64036;48.266;14.192;2022-12-29T05:10:17;0.40;82.79
75457;SHT31;64036;48.266;14.192;2022-12-29T05:12:43;0.41;82.75
75457;SHT31;64036;48.266;14.192;2022-12-29T05:15:09;0.38;82.57
75457;SHT31;64036;48.266;14.192;2022-12-29T05:17:36;0.34;82.64
75457;SHT31;64036;48.266;14.192;2022-12-29T05:20:02;0.31;82.58
75457;SHT31;64036;48.266;14.192;2022-12-29T05:22:29;0.27;82.47
75457;SHT31;64036;48.266;14.192;2022-12-29T05:24:55;0.22;82.50
75457;SHT31;64036;48.266;14.192;2022-12-29T05:27:21;0.23;82.73
75457;SHT31;64036;48.266;14.192;2022-12-29T05:29:46;0.25;82.82
75457;SHT31;64036;48.266;14.192;2022-12-29T05:32:12;0.21;82.70
75457;SHT31;64036;48.266;14.192;2022-12-29T05:34:37;0.20;82.84
75457;SHT31;64036;48.266;14.192;2022-12-29T05:37:03;0.21;82.90
75457;SHT31;64036;48.266;14.192;2022-12-29T05:39:29;0.24;83.13
75457;SHT31;64036;48.266;14.192;2022-12-29T05:41:54;0.29;83.27
75457;SHT31;64036;48.266;14.192;2022-12-29T05:44:20;0.31;83.34
75457;SHT31;64036;48.266;14.192;2022-12-29T05:46:45;0.31;83.27
75457;SHT31;64036;48.266;14.192;2022-12-29T05:49:11;0.33;83.29
75457;SHT31;64036;48.266;14.192;2022-12-29T05:51:37;0.35;83.40
75457;SHT31;64036;48.266;14.192;2022-12-29T05:54:02;0.37;83.37
75457;SHT31;64036;48.266;14.192;2022-12-29T05:56:28;0.36;83.39
75457;SHT31;64036;48.266;14.192;2022-12-29T05:58:53;0.36;83.26
75457;SHT31;64036;48.266;14.192;2022-12-29T06:01:19;0.34;83.15
75457;SHT31;64036;48.266;14.192;2022-12-29T06:03:44;0.29;83.31
75457;SHT31;64036;48.266;14.192;2022-12-29T06:06:10;0.30;83.51
75457;SHT31;64036;48.266;14.192;2022-12-29T06:08:35;0.29;83.55
75457;SHT31;64036;48.266;14.192;2022-12-29T06:11:01;0.27;83.39
75457;SHT31;64036;48.266;14.192;2022-12-29T06:13:27;0.23;83.40
75457;SHT31;64036;48.266;14.192;2022-12-29T06:15:52;0.26;83.68
75457;SHT31;64036;48.266;14.192;2022-12-29T06:18:18;0.29;83.71
75457;SHT31;64036;48.266;14.192;2022-12-29T06:20:44;0.28;83.60
75457;SHT31;64036;48.266;14.192;2022-12-29T06:23:09;0.29;83.60
75457;SHT31;64036;48.266;14.192;2022-12-29T06:25:36;0.33;83.80
75457;SHT31;64036;48.266;14.192;2022-12-29T06:28:02;0.35;83.78
75457;SHT31;64036;48.266;14.192;2022-12-29T06:30:28;0.34;83.59
75457;SHT31;64036;48.266;14.192;2022-12-29T06:32:54;0.36;83.51
75457;SHT31;64036;48.266;14.192;2022-12-29T06:35:20;0.36;83.53
75457;SHT31;64036;48.266;14.192;2022-12-29T06:37:47;0.38;83.50
75457;SHT31;64036;48.266;14.192;2022-12-29T06:40:13;0.38;83.33
75457;SHT31;64036;48.266;14.192;2022-12-29T06:42:39;0.37;83.38
75457;SHT31;64036;48.266;14.192;2022-12-29T06:45:05;0.41;83.48
75457;SHT31;64036;48.266;14.192;2022-12-29T06:47:32;0.41;83.35
75457;SHT31;64036;48.266;14.192;2022-12-29T06:49:59;0.42;83.32
75457;SHT31;64036;48.266;14.192;2022-12-29T06:52:26;0.47;83.57
75457;SHT31;64036;48.266;14.192;2022-12-29T06:54:53;0.55;83.75
75457;SHT31;64036;48.266;14.192;2022-12-29T06:57:19;0.62;83.79
75457;SHT31;64036;48.266;14.192;2022-12-29T06:59:46;0.67;83.72
75457;SHT31;64036;48.266;14.192;2022-12-29T07:02:11;0.73;83.63
75457;SHT31;64036;48.266;14.192;2022-12-29T07:04:39;0.83;83.63
75457;SHT31;64036;48.266;14.192;2022-12-29T07:07:04;1.02;83.61
75457;SHT31;64036;48.266;14.192;2022-12-29T07:09:30;1.35;83.60
75457;SHT31;64036;48.266;14.192;2022-12-29T07:11:55;1.77;83.50
75457;SHT31;64036;48.266;14.192;2022-12-29T07:14:23;2.17;83.10
75457;SHT31;64036;48.266;14.192;2022-12-29T07:16:49;2.49;82.33
75457;SHT31;64036;48.266;14.192;2022-12-29T07:19:14;2.74;81.88
75457;SHT31;64036;48.266;14.192;2022-12-29T07:21:40;2.91;81.23
75457;SHT31;64036;48.266;14.192;2022-12-29T07:24:06;3.24;80.76
75457;SHT31;64036;48.266;14.192;2022-12-29T07:26:32;3.76;80.46
75457;SHT31;64036;48.266;14.192;2022-12-29T07:29:00;4.32;79.98
75457;SHT31;64036;48.266;14.192;2022-12-29T07:31:26;4.68;78.80
75457;SHT31;64036;48.266;14.192;2022-12-29T07:33:51;4.74;78.48
75457;SHT31;64036;48.266;14.192;2022-12-29T07:36:17;4.84;78.12
75457;SHT31;64036;48.266;14.192;2022-12-29T07:38:42;5.23;77.83
75457;SHT31;64036;48.266;14.192;2022-12-29T07:41:09;5.55;76.48
75457;SHT31;64036;48.266;14.192;2022-12-29T07:43:34;6.00;76.11
75457;SHT31;64036;48.266;14.192;2022-12-29T07:46:00;5.99;75.46
75457;SHT31;64036;48.266;14.192;2022-12-29T07:48:25;5.76;75.59
75457;SHT31;64036;48.266;14.192;2022-12-29T07:50:52;5.54;74.98
75457;SHT31;64036;48.266;14.192;2022-12-29T07:53:18;5.32;75.21
75457;SHT31;64036;48.266;14.192;2022-12-29T07:55:45;5.35;75.76
75457;SHT31;64036;48.266;14.192;2022-12-29T07:58:10;5.71;75.23
75457;SHT31;64036;48.266;14.192;2022-12-29T08:00:36;6.26;74.83
75457;SHT31;64036;48.266;14.192;2022-12-29T08:03:03;7.04;74.14
75457;SHT31;64036;48.266;14.192;2022-12-29T08:05:30;7.59;72.91
75457;SHT31;64036;48.266;14.192;2022-12-29T08:07:57;8.10;72.38
75457;SHT31;64036;48.266;14.192;2022-12-29T08:10:22;8.76;71.35
75457;SHT31;64036;48.266;14.192;2022-12-29T08:12:49;9.00;68.95
75457;SHT31;64036;48.266;14.192;2022-12-29T08:15:14;8.63;69.38
75457;SHT31;64036;48.266;14.192;2022-12-29T08:17:40;8.34;69.53
75457;SHT31;64036;48.266;14.192;2022-12-29T08:20:06;8.08;69.51
75457;SHT31;64036;48.266;14.192;2022-12-29T08:22:33;7.93;69.44
75457;SHT31;64036;48.266;14.192;2022-12-29T08:24:58;7.81;69.69
75457;SHT31;64036;48.266;14.192;2022-12-29T08:27:24;7.56;69.56
75457;SHT31;64036;48.266;14.192;2022-12-29T08:29:51;7.36;69.66
75457;SHT31;64036;48.266;14.192;2022-12-29T08:32:16;7.21;69.78
75457;SHT31;64036;48.266;14.192;2022-12-29T08:34:42;7.05;69.72
75457;SHT31;64036;48.266;14.192;2022-12-29T08:37:08;6.84;69.67
75457;SHT31;64036;48.266;14.192;2022-12-29T08:39:33;6.61;69.86
75457;SHT31;64036;48.266;14.192;2022-12-29T08:41:59;6.44;70.40
75457;SHT31;64036;48.266;14.192;2022-12-29T08:44:25;6.32;70.28
75457;SHT31;64036;48.266;14.192;2022-12-29T08:46:50;6.18;70.59
75457;SHT31;64036;48.266;14.192;2022-12-29T08:49:16;6.11;71.08
75457;SHT31;64036;48.266;14.192;2022-12-29T08:51:41;6.07;71.13
75457;SHT31;64036;48.266;14.192;2022-12-29T08:54:07;6.02;71.12
75457;SHT31;64036;48.266;14.192;2022-12-29T08:56:35;6.17;71.06
75457;SHT31;64036;48.266;14.192;2022-12-29T08:59:01;6.30;70.85
75457;SHT31;64036;48.266;14.192;2022-12-29T09:01:27;6.37;70.74
75457;SHT31;64036;48.266;14.192;2022-12-29T09:03:53;6.54;70.58
75457;SHT31;64036;48.266;14.192;2022-12-29T09:06:19;6.70;69.93
75457;SHT31;64036;48.266;14.192;2022-12-29T09:08:45;7.07;70.47
75457;SHT31;64036;48.266;14.192;2022-12-29T09:11:18;7.26;69.88
75457;SHT31;64036;48.266;14.192;2022-12-29T09:13:47;7.33;69.58
75457;SHT31;64036;48.266;14.192;2022-12-29T09:16:13;7.46;68.83
75457;SHT31;64036;48.266;14.192;2022-12-29T09:18:40;7.49;68.50
75457;SHT31;64036;48.266;14.192;2022-12-29T09:21:06;7.41;68.90
75457;SHT31;64036;48.266;14.192;2022-12-29T09:23:33;7.27;68.32
75457;SHT31;64036;48.266;14.192;2022-12-29T09:25:59;7.20;68.64
75457;SHT31;64036;48.266;14.192;2022-12-29T09:28:25;7.12;69.19
75457;SHT31;64036;48.266;14.192;2022-12-29T09:30:51;7.06;69.07
75457;SHT31;64036;48.266;14.192;2022-12-29T09:33:17;7.21;69.33
75457;SHT31;64036;48.266;14.192;2022-12-29T09:35:43;7.27;68.47
75457;SHT31;64036;48.266;14.192;2022-12-29T09:38:10;7.17;68.87
75457;SHT31;64036;48.266;14.192;2022-12-29T09:40:37;7.15;69.02
75457;SHT31;64036;48.266;14.192;2022-12-29T09:51:27;7.32;68.81
75457;SHT31;64036;48.266;14.192;2022-12-29T09:53:57;7.29;68.97
75457;SHT31;64036;48.266;14.192;2022-12-29T09:56:30;7.46;68.72
75457;SHT31;64036;48.266;14.192;2022-12-29T10:01:31;7.50;67.63
75457;SHT31;64036;48.266;14.192;2022-12-29T10:04:03;7.44;68.11
75457;SHT31;64036;48.266;14.192;2022-12-29T10:09:19;7.30;67.70
75457;SHT31;64036;48.266;14.192;2022-12-29T10:12:29;7.25;66.74
75457;SHT31;64036;48.266;14.192;2022-12-29T10:15:38;6.97;67.26
75457;SHT31;64036;48.266;14.192;2022-12-29T10:21:05;6.87;68.23
75457;SHT31;64036;48.266;14.192;2022-12-29T10:23:59;6.81;68.57
75457;SHT31;64036;48.266;14.192;2022-12-29T10:26:31;6.91;68.57
75457;SHT31;64036;48.266;14.192;2022-12-29T10:29:05;7.01;68.31
75457;SHT31;64036;48.266;14.192;2022-12-29T10:34:38;7.34;67.94
75457;SHT31;64036;48.266;14.192;2022-12-29T10:37:13;7.35;67.98
75457;SHT31;64036;48.266;14.192;2022-12-29T10:39:55;7.53;67.92
75457;SHT31;64036;48.266;14.192;2022-12-29T10:42:34;7.76;67.63
75457;SHT31;64036;48.266;14.192;2022-12-29T10:45:06;8.05;67.21
75457;SHT31;64036;48.266;14.192;2022-12-29T10:47:41;8.43;66.79
75457;SHT31;64036;48.266;14.192;2022-12-29T10:50:19;8.54;66.20
75457;SHT31;64036;48.266;14.192;2022-12-29T10:52:44;8.54;66.68
75457;SHT31;64036;48.266;14.192;2022-12-29T10:55:23;8.65;66.51
75457;SHT31;64036;48.266;14.192;2022-12-29T10:57:54;8.73;66.31
75457;SHT31;64036;48.266;14.192;2022-12-29T11:00:30;8.71;66.14
75457;SHT31;64036;48.266;14.192;2022-12-29T11:08:04;9.20;64.89
75457;SHT31;64036;48.266;14.192;2022-12-29T11:10:38;9.42;64.15
75457;SHT31;64036;48.266;14.192;2022-12-29T11:15:44;9.62;64.37
75457;SHT31;64036;48.266;14.192;2022-12-29T11:21:03;9.90;63.68
75457;SHT31;64036;48.266;14.192;2022-12-29T11:23:39;9.84;61.99
75457;SHT31;64036;48.266;14.192;2022-12-29T11:28:36;10.04;61.50
75457;SHT31;64036;48.266;14.192;2022-12-29T11:31:03;10.21;60.33
75457;SHT31;64036;48.266;14.192;2022-12-29T11:33:31;10.30;59.70
75457;SHT31;64036;48.266;14.192;2022-12-29T11:36:19;10.40;59.78
75457;SHT31;64036;48.266;14.192;2022-12-29T11:38:52;10.50;59.51
75457;SHT31;64036;48.266;14.192;2022-12-29T11:41:20;10.64;60.33
75457;SHT31;64036;48.266;14.192;2022-12-29T11:43:50;10.90;59.43
75457;SHT31;64036;48.266;14.192;2022-12-29T11:46:19;11.15;58.89
75457;SHT31;64036;48.266;14.192;2022-12-29T11:48:50;11.10;58.33
75457;SHT31;64036;48.266;14.192;2022-12-29T11:51:38;11.06;58.31
75457;SHT31;64036;48.266;14.192;2022-12-29T11:54:19;11.15;58.63
75457;SHT31;64036;48.266;14.192;2022-12-29T11:56:50;11.35;58.85
75457;SHT31;64036;48.266;14.192;2022-12-29T12:02:24;11.55;57.98
75457;SHT31;64036;48.266;14.192;2022-12-29T12:04:53;11.55;56.56
75457;SHT31;64036;48.266;14.192;2022-12-29T12:07:42;11.25;54.60
75457;SHT31;64036;48.266;14.192;2022-12-29T12:10:31;10.96;55.00
75457;SHT31;64036;48.266;14.192;2022-12-29T12:19:09;10.33;57.25
75457;SHT31;64036;48.266;14.192;2022-12-29T12:21:37;10.43;56.93
75457;SHT31;64036;48.266;14.192;2022-12-29T12:24:20;10.38;57.74
75457;SHT31;64036;48.266;14.192;2022-12-29T12:26:59;10.22;57.45
75457;SHT31;64036;48.266;14.192;2022-12-29T12:35:44;10.23;57.94
75457;SHT31;64036;48.266;14.192;2022-12-29T12:48:04;9.56;59.65
75457;SHT31;64036;48.266;14.192;2022-12-29T12:53:47;8.89;60.15
75457;SHT31;64036;48.266;14.192;2022-12-29T12:57:01;8.79;61.61
75457;SHT31;64036;48.266;14.192;2022-12-29T12:59:59;9.01;61.67
75457;SHT31;64036;48.266;14.192;2022-12-29T13:05:29;9.25;60.88
75457;SHT31;64036;48.266;14.192;2022-12-29T13:10:50;9.62;60.82
75457;SHT31;64036;48.266;14.192;2022-12-29T13:13:51;9.81;60.73
75457;SHT31;64036;48.266;14.192;2022-12-29T13:28:25;9.65;61.62
75457;SHT31;64036;48.266;14.192;2022-12-29T13:34:13;9.63;62.03
75457;SHT31;64036;48.266;14.192;2022-12-29T13:39:31;9.50;62.39
75457;SHT31;64036;48.266;14.192;2022-12-29T13:42:02;9.38;62.47
75457;SHT31;64036;48.266;14.192;2022-12-29T13:44:31;9.38;62.71
75457;SHT31;64036;48.266;14.192;2022-12-29T13:47:08;9.28;62.33
75457;SHT31;64036;48.266;14.192;2022-12-29T13:49:42;9.19;63.39
75457;SHT31;64036;48.266;14.192;2022-12-29T13:52:12;9.17;63.64
75457;SHT31;64036;48.266;14.192;2022-12-29T14:00:22;9.04;63.51
75457;SHT31;64036;48.266;14.192;2022-12-29T14:06:13;9.02;64.19
75457;SHT31;64036;48.266;14.192;2022-12-29T14:08:44;8.98;63.85
75457;SHT31;64036;48.266;14.192;2022-12-29T14:11:10;8.91;64.13
75457;SHT31;64036;48.266;14.192;2022-12-29T14:13:40;8.79;64.58
75457;SHT31;64036;48.266;14.192;2022-12-29T14:16:29;8.66;64.64
75457;SHT31;64036;48.266;14.192;2022-12-29T14:19:32;8.62;64.74
75457;SHT31;64036;48.266;14.192;2022-12-29T14:22:00;8.42;65.22
75457;SHT31;64036;48.266;14.192;2022-12-29T14:27:00;8.12;65.78
75457;SHT31;64036;48.266;14.192;2022-12-29T14:34:58;7.88;66.11
75457;SHT31;64036;48.266;14.192;2022-12-29T14:37:27;7.81;66.22
75457;SHT31;64036;48.266;14.192;2022-12-29T14:42:45;7.61;67.06
75457;SHT31;64036;48.266;14.192;2022-12-29T14:47:48;7.52;67.68
75457;SHT31;64036;48.266;14.192;2022-12-29T14:50:17;7.44;67.96
75457;SHT31;64036;48.266;14.192;2022-12-29T14:52:49;7.42;67.74
75457;SHT31;64036;48.266;14.192;2022-12-29T14:58:01;7.29;67.15
75457;SHT31;64036;48.266;14.192;2022-12-29T15:00:33;7.24;67.42
75457;SHT31;64036;48.266;14.192;2022-12-29T15:05:37;7.12;67.61
75457;SHT31;64036;48.266;14.192;2022-12-29T15:08:10;7.08;67.50
75457;SHT31;64036;48.266;14.192;2022-12-29T15:11:40;7.04;67.45
75457;SHT31;64036;48.266;14.192;2022-12-29T15:13:42;6.98;67.87
75457;SHT31;64036;48.266;14.192;2022-12-29T15:19:01;6.90;67.21
75457;SHT31;64036;48.266;14.192;2022-12-29T15:21:31;6.87;67.09
75457;SHT31;64036;48.266;14.192;2022-12-29T15:23:59;6.79;67.33
75457;SHT31;64036;48.266;14.192;2022-12-29T15:26:40;6.70;67.76
75457;SHT31;64036;48.266;14.192;2022-12-29T15:29:28;6.62;68.10
75457;SHT31;64036;48.266;14.192;2022-12-29T15:32:39;6.55;68.25
75457;SHT31;64036;48.266;14.192;2022-12-29T15:35:21;6.41;68.48
75457;SHT31;64036;48.266;14.192;2022-12-29T15:37:55;6.38;68.74
75457;SHT31;64036;48.266;14.192;2022-12-29T15:40:25;6.32;68.83
75457;SHT31;64036;48.266;14.192;2022-12-29T15:45:46;6.07;69.40
75457;SHT31;64036;48.266;14.192;2022-12-29T15:48:18;5.98;69.69
75457;SHT31;64036;48.266;14.192;2022-12-29T15:50:48;5.85;69.85
75457;SHT31;64036;48.266;14.192;2022-12-29T15:53:19;5.71;70.13
75457;SHT31;64036;48.266;14.192;2022-12-29T15:56:05;5.64;70.37
75457;SHT31;64036;48.266;14.192;2022-12-29T15:58:39;5.59;70.40
75457;SHT31;64036;48.266;14.192;2022-12-29T16:01:16;5.48;70.56
75457;SHT31;64036;48.266;14.192;2022-12-29T16:03:50;5.38;70.83
75457;SHT31;64036;48.266;14.192;2022-12-29T16:06:34;5.32;71.02
75457;SHT31;64036;48.266;14.192;2022-12-29T16:09:06;5.28;71.20
75457;SHT31;64036;48.266;14.192;2022-12-29T16:11:42;5.11;71.44
75457;SHT31;64036;48.266;14.192;2022-12-29T16:14:24;5.03;71.71
75457;SHT31;64036;48.266;14.192;2022-12-29T16:17:19;4.96;71.80
75457;SHT31;64036;48.266;14.192;2022-12-29T16:19:56;4.91;71.88
75457;SHT31;64036;48.266;14.192;2022-12-29T16:22:41;4.83;71.99
75457;SHT31;64036;48.266;14.192;2022-12-29T16:25:19;4.79;72.04
75457;SHT31;64036;48.266;14.192;2022-12-29T16:27:50;4.76;72.17
75457;SHT31;64036;48.266;14.192;2022-12-29T16:30:27;4.67;72.33
75457;SHT31;64036;48.266;14.192;2022-12-29T16:33:00;4.62;72.38
75457;SHT31;64036;48.266;14.192;2022-12-29T16:35:29;4.58;72.44
75457;SHT31;64036;48.266;14.192;2022-12-29T16:38:18;4.55;72.51
75457;SHT31;64036;48.266;14.192;2022-12-29T16:40:58;4.53;72.67
75457;SHT31;64036;48.266;14.192;2022-12-29T16:51:03;4.42;72.90
75457;SHT31;64036;48.266;14.192;2022-12-29T16:53:50;4.40;72.94
75457;SHT31;64036;48.266;14.192;2022-12-29T16:56:19;4.39;73.01
75457;SHT31;64036;48.266;14.192;2022-12-29T16:58:50;4.38;73.09
75457;SHT31;64036;48.266;14.192;2022-12-29T17:01:29;4.37;73.11
75457;SHT31;64036;48.266;14.192;2022-12-29T17:04:00;4.41;73.07
75457;SHT31;64036;48.266;14.192;2022-12-29T17:06:35;4.48;72.87
75457;SHT31;64036;48.266;14.192;2022-12-29T17:09:01;4.50;72.89
75457;SHT31;64036;48.266;14.192;2022-12-29T17:11:28;4.47;73.05
75457;SHT31;64036;48.266;14.192;2022-12-29T17:14:19;4.43;73.12
75457;SHT31;64036;48.266;14.192;2022-12-29T17:17:05;4.40;73.10
75457;SHT31;64036;48.266;14.192;2022-12-29T17:19:39;4.43;72.83
75457;SHT31;64036;48.266;14.192;2022-12-29T17:22:44;4.41;72.80
75457;SHT31;64036;48.266;14.192;2022-12-29T17:25:03;4.41;72.73
75457;SHT31;64036;48.266;14.192;2022-12-29T17:27:36;4.39;72.69
75457;SHT31;64036;48.266;14.192;2022-12-29T17:32:40;4.40;72.57
75457;SHT31;64036;48.266;14.192;2022-12-29T17:35:15;4.39;72.49
75457;SHT31;64036;48.266;14.192;2022-12-29T17:37:43;4.40;72.40
75457;SHT31;64036;48.266;14.192;2022-12-29T17:40:12;4.41;72.40
75457;SHT31;64036;48.266;14.192;2022-12-29T17:42:44;4.41;72.32
75457;SHT31;64036;48.266;14.192;2022-12-29T17:45:17;4.39;72.39
75457;SHT31;64036;48.266;14.192;2022-12-29T17:47:47;4.40;72.40
75457;SHT31;64036;48.266;14.192;2022-12-29T17:50:14;4.37;72.39
75457;SHT31;64036;48.266;14.192;2022-12-29T17:52:47;4.34;72.40
75457;SHT31;64036;48.266;14.192;2022-12-29T17:55:22;4.29;72.48
75457;SHT31;64036;48.266;14.192;2022-12-29T17:57:50;4.26;72.51
75457;SHT31;64036;48.266;14.192;2022-12-29T18:00:17;4.24;72.53
75457;SHT31;64036;48.266;14.192;2022-12-29T18:02:51;4.21;72.53
75457;SHT31;64036;48.266;14.192;2022-12-29T18:05:26;4.11;72.76
75457;SHT31;64036;48.266;14.192;2022-12-29T18:07:55;4.06;72.89
75457;SHT31;64036;48.266;14.192;2022-12-29T18:10:24;4.04;72.92
75457;SHT31;64036;48.266;14.192;2022-12-29T18:12:53;4.03;72.92
75457;SHT31;64036;48.266;14.192;2022-12-29T18:15:30;4.02;72.92
75457;SHT31;64036;48.266;14.192;2022-12-29T18:18:00;3.99;73.00
75457;SHT31;64036;48.266;14.192;2022-12-29T18:20:34;3.96;73.01
75457;SHT31;64036;48.266;14.192;2022-12-29T18:23:00;3.91;73.00
75457;SHT31;64036;48.266;14.192;2022-12-29T18:25:27;3.83;73.14
75457;SHT31;64036;48.266;14.192;2022-12-29T18:28:04;3.78;73.30
75457;SHT31;64036;48.266;14.192;2022-12-29T18:30:30;3.69;73.42
75457;SHT31;64036;48.266;14.192;2022-12-29T18:32:55;3.60;73.62
75457;SHT31;64036;48.266;14.192;2022-12-29T18:35:23;3.57;73.78
75457;SHT31;64036;48.266;14.192;2022-12-29T18:37:54;3.55;73.87
75457;SHT31;64036;48.266;14.192;2022-12-29T18:40:20;3.53;73.91
75457;SHT31;64036;48.266;14.192;2022-12-29T18:42:46;3.51;73.96
75457;SHT31;64036;48.266;14.192;2022-12-29T18:45:21;3.49;74.19
75457;SHT31;64036;48.266;14.192;2022-12-29T18:47:48;3.47;74.20